sensor_id;sensor_type;location;lat;lon;timestamp;temperature;humidity
29855;DHT22;16733;48.738;9.106;2023-04-16T00:00:56;7.30;99.90
29855;DHT22;16733;48.738;9.106;2023-04-16T00:03:21;7.30;99.90
29855;DHT22;16733;48.738;9.106;2023-04-16T00:05:48;7.30;99.90
29855;DHT22;16733;48.738;9.106;2023-04-16T00:08:13;7.30;99.90
29855;DHT22;16733;48.738;9.106;2023-04-16T00:10:39;7.30;99.90
29855;DHT22;16733;48.738;9.106;2023-04-16T00:13:04;7.30;99.90
29855;DHT22;16733;48.738;9.106;2023-04-16T00:15:30;7.30;99.90
29855;DHT22;16733;48.738;9.106;2023-04-16T00:17:55;7.30;99.90
29855;DHT22;16733;48.738;9.106;2023-04-16T00:20:21;7.30;99.90
29855;DHT22;16733;48.738;9.106;2023-04-16T00:22:47;7.30;99.90
29855;DHT22;16733;48.738;9.106;2023-04-16T00:25:13;7.30;99.90
29855;DHT22;16733;48.738;9.106;2023-04-16T00:27:39;7.20;99.90
29855;DHT22;16733;48.738;9.106;2023-04-16T00:33:26;7.30;99.90
29855;DHT22;16733;48.738;9.106;2023-04-16T00:35:54;7.30;99.90
29855;DHT22;16733;48.738;9.106;2023-04-16T00:38:20;7.30;99.90
29855;DHT22;16733;48.738;9.106;2023-04-16T00:40:45;7.30;99.90
29855;DHT22;16733;48.738;9.106;2023-04-16T00:43:18;7.30;99.90
29855;DHT22;16733;48.738;9.106;2023-04-16T00:45:44;7.30;99.90
29855;DHT22;16733;48.738;9.106;2023-04-16T00:48:10;7.30;99.90
29855;DHT22;16733;48.738;9.106;2023-04-16T00:50:35;7.30;99.90
29855;DHT22;16733;48.738;9.106;2023-04-16T00:53:01;7.30;99.90
29855;DHT22;16733;48.738;9.106;2023-04-16T00:55:27;7.30;99.90
29855;DHT22;16733;48.738;9.106;2023-04-16T00:57:53;7.30;99.90
29855;DHT22;16733;48.738;9.106;2023-04-16T01:00:19;7.30;99.90
29855;DHT22;16733;48.738;9.106;2023-04-16T01:02:45;7.20;99.90
29855;DHT22;16733;48.738;9.106;2023-04-16T01:05:10;7.30;99.90
29855;DHT22;16733;48.738;9.106;2023-04-16T01:07:38;7.30;99.90
29855;DHT22;16733;48.738;9.106;2023-04-16T01:10:04;7.30;99.90
29855;DHT22;16733;48.738;9.106;2023-04-16T01:12:30;7.30;99.90
29855;DHT22;16733;48.738;9.106;2023-04-16T01:14:56;7.30;99.90
29855;DHT22;16733;48.738;9.106;2023-04-16T01:17:22;7.20;99.90
29855;DHT22;16733;48.738;9.106;2023-04-16T01:19:48;7.30;99.90
29855;DHT22;16733;48.738;9.106;2023-04-16T01:22:13;7.30;99.90
29855;DHT22;16733;48.738;9.106;2023-04-16T01:24:39;7.30;99.90
29855;DHT22;16733;48.738;9.106;2023-04-16T01:27:05;7.30;99.90
29855;DHT22;16733;48.738;9.106;2023-04-16T01:29:33;7.30;99.90
29855;DHT22;16733;48.738;9.106;2023-04-16T01:31:59;7.30;99.90
29855;DHT22;16733;48.738;9.106;2023-04-16T01:37:49;7.30;99.90
29855;DHT22;16733;48.738;9.106;2023-04-16T01:40:14;7.30;99.90
29855;DHT22;16733;48.738;9.106;2023-04-16T01:42:40;7.30;99.90
29855;DHT22;16733;48.738;9.106;2023-04-16T01:45:06;7.30;99.90
29855;DHT22;16733;48.738;9.106;2023-04-16T01:50:53;7.30;99.90
29855;DHT22;16733;48.738;9.106;2023-04-16T01:53:19;7.30;99.90
29855;DHT22;16733;48.738;9.106;2023-04-16T01:59:06;7.30;99.90
29855;DHT22;16733;48.738;9.106;2023-04-16T02:01:32;7.30;99.90
29855;DHT22;16733;48.738;9.106;2023-04-16T02:07:19;7.30;99.90
29855;DHT22;16733;48.738;9.106;2023-04-16T02:09:45;7.20;99.90
29855;DHT22;16733;48.738;9.106;2023-04-16T02:15:32;7.20;99.90
29855;DHT22;16733;48.738;9.106;2023-04-16T02:17:58;7.20;99.90
29855;DHT22;16733;48.738;9.106;2023-04-16T02:23:46;7.30;99.90
29855;DHT22;16733;48.738;9.106;2023-04-16T02:26:15;7.30;99.90
29855;DHT22;16733;48.738;9.106;2023-04-16T02:32:03;7.20;99.90
29855;DHT22;16733;48.738;9.106;2023-04-16T02:34:31;7.30;99.90
29855;DHT22;16733;48.738;9.106;2023-04-16T02:43:42;7.30;99.90
29855;DHT22;16733;48.738;9.106;2023-04-16T02:46:07;7.20;99.90
29855;DHT22;16733;48.738;9.106;2023-04-16T02:51:55;7.20;99.90
29855;DHT22;16733;48.738;9.106;2023-04-16T02:57:42;7.20;99.90
29855;DHT22;16733;48.738;9.106;2023-04-16T03:00:08;7.20;99.90
29855;DHT22;16733;48.738;9.106;2023-04-16T03:05:56;7.20;99.90
29855;DHT22;16733;48.738;9.106;2023-04-16T03:11:44;7.10;99.90
29855;DHT22;16733;48.738;9.106;2023-04-16T03:14:09;7.20;99.90
29855;DHT22;16733;48.738;9.106;2023-04-16T03:19:57;7.20;99.90
29855;DHT22;16733;48.738;9.106;2023-04-16T03:22:22;7.20;99.90
29855;DHT22;16733;48.738;9.106;2023-04-16T03:24:48;7.20;99.90
29855;DHT22;16733;48.738;9.106;2023-04-16T03:27:14;7.10;99.90
29855;DHT22;16733;48.738;9.106;2023-04-16T03:33:01;7.20;99.90
29855;DHT22;16733;48.738;9.106;2023-04-16T03:38:52;7.20;99.90
29855;DHT22;16733;48.738;9.106;2023-04-16T03:41:18;7.10;99.90
29855;DHT22;16733;48.738;9.106;2023-04-16T03:43:43;7.10;99.90
29855;DHT22;16733;48.738;9.106;2023-04-16T03:49:31;7.10;99.90
29855;DHT22;16733;48.738;9.106;2023-04-16T03:55:18;7.10;99.90
29855;DHT22;16733;48.738;9.106;2023-04-16T03:57:44;7.10;99.90
29855;DHT22;16733;48.738;9.106;2023-04-16T04:00:10;7.10;99.90
29855;DHT22;16733;48.738;9.106;2023-04-16T04:05:58;7.10;99.90
29855;DHT22;16733;48.738;9.106;2023-04-16T04:08:23;7.10;99.90
29855;DHT22;16733;48.738;9.106;2023-04-16T04:10:49;7.10;99.90
29855;DHT22;16733;48.738;9.106;2023-04-16T04:13:15;7.10;99.90
29855;DHT22;16733;48.738;9.106;2023-04-16T04:15:41;7.10;99.90
29855;DHT22;16733;48.738;9.106;2023-04-16T04:18:06;7.10;99.90
29855;DHT22;16733;48.738;9.106;2023-04-16T04:20:32;7.10;99.90
29855;DHT22;16733;48.738;9.106;2023-04-16T04:29:41;7.00;99.90
29855;DHT22;16733;48.738;9.106;2023-04-16T04:35:29;7.00;99.90
29855;DHT22;16733;48.738;9.106;2023-04-16T04:37:55;7.00;99.90
29855;DHT22;16733;48.738;9.106;2023-04-16T04:43:42;7.00;99.90
29855;DHT22;16733;48.738;9.106;2023-04-16T04:49:31;7.10;99.90
29855;DHT22;16733;48.738;9.106;2023-04-16T04:51:56;7.00;99.90
29855;DHT22;16733;48.738;9.106;2023-04-16T04:54:22;7.10;99.90
29855;DHT22;16733;48.738;9.106;2023-04-16T04:56:47;7.10;99.90
29855;DHT22;16733;48.738;9.106;2023-04-16T04:59:13;7.10;99.90
29855;DHT22;16733;48.738;9.106;2023-04-16T05:01:38;7.10;99.90
29855;DHT22;16733;48.738;9.106;2023-04-16T05:04:04;7.10;99.90
29855;DHT22;16733;48.738;9.106;2023-04-16T05:06:29;7.10;99.90
29855;DHT22;16733;48.738;9.106;2023-04-16T05:08:56;7.10;99.90
29855;DHT22;16733;48.738;9.106;2023-04-16T05:11:21;7.10;99.90
29855;DHT22;16733;48.738;9.106;2023-04-16T05:27:15;7.10;99.90
29855;DHT22;16733;48.738;9.106;2023-04-16T05:29:40;7.10;99.90
29855;DHT22;16733;48.738;9.106;2023-04-16T05:32:06;7.10;99.90
29855;DHT22;16733;48.738;9.106;2023-04-16T05:34:31;7.10;99.90
29855;DHT22;16733;48.738;9.106;2023-04-16T05:36:57;7.10;99.90
29855;DHT22;16733;48.738;9.106;2023-04-16T05:39:22;7.10;99.90
29855;DHT22;16733;48.738;9.106;2023-04-16T05:41:48;7.10;99.90
29855;DHT22;16733;48.738;9.106;2023-04-16T05:44:14;7.10;99.90
29855;DHT22;16733;48.738;9.106;2023-04-16T05:46:39;7.10;99.90
29855;DHT22;16733;48.738;9.106;2023-04-16T05:52:27;7.10;99.90
29855;DHT22;16733;48.738;9.106;2023-04-16T05:58:21;7.10;99.90
29855;DHT22;16733;48.738;9.106;2023-04-16T06:00:47;7.10;99.90
29855;DHT22;16733;48.738;9.106;2023-04-16T06:13:19;7.10;99.90
29855;DHT22;16733;48.738;9.106;2023-04-16T06:15:44;7.10;99.90
29855;DHT22;16733;48.738;9.106;2023-04-16T06:21:33;7.10;99.90
29855;DHT22;16733;48.738;9.106;2023-04-16T06:23:58;7.10;99.90
29855;DHT22;16733;48.738;9.106;2023-04-16T06:26:24;7.10;99.90
29855;DHT22;16733;48.738;9.106;2023-04-16T06:32:12;7.10;99.90
29855;DHT22;16733;48.738;9.106;2023-04-16T06:34:37;7.10;99.90
29855;DHT22;16733;48.738;9.106;2023-04-16T06:37:03;7.20;99.90
29855;DHT22;16733;48.738;9.106;2023-04-16T06:39:29;7.20;99.90
29855;DHT22;16733;48.738;9.106;2023-04-16T06:41:55;7.20;99.90
29855;DHT22;16733;48.738;9.106;2023-04-16T06:44:21;7.20;99.90
29855;DHT22;16733;48.738;9.106;2023-04-16T06:46:46;7.20;99.90
29855;DHT22;16733;48.738;9.106;2023-04-16T06:49:12;7.20;99.90
29855;DHT22;16733;48.738;9.106;2023-04-16T06:51:38;7.20;99.90
29855;DHT22;16733;48.738;9.106;2023-04-16T06:54:03;7.20;99.90
29855;DHT22;16733;48.738;9.106;2023-04-16T06:59:51;7.20;99.90
29855;DHT22;16733;48.738;9.106;2023-04-16T07:02:16;7.20;99.90
29855;DHT22;16733;48.738;9.106;2023-04-16T07:04:42;7.20;99.90
29855;DHT22;16733;48.738;9.106;2023-04-16T07:07:08;7.20;99.90
29855;DHT22;16733;48.738;9.106;2023-04-16T07:09:33;7.20;99.90
29855;DHT22;16733;48.738;9.106;2023-04-16T07:11:59;7.20;99.90
29855;DHT22;16733;48.738;9.106;2023-04-16T07:17:46;7.20;99.90
29855;DHT22;16733;48.738;9.106;2023-04-16T07:20:12;7.10;99.90
29855;DHT22;16733;48.738;9.106;2023-04-16T07:22:38;7.20;99.90
29855;DHT22;16733;48.738;9.106;2023-04-16T07:25:03;7.20;99.90
29855;DHT22;16733;48.738;9.106;2023-04-16T07:27:29;7.20;99.90
29855;DHT22;16733;48.738;9.106;2023-04-16T07:29:55;7.20;99.90
29855;DHT22;16733;48.738;9.106;2023-04-16T07:32:20;7.20;99.90
29855;DHT22;16733;48.738;9.106;2023-04-16T07:34:46;7.20;99.90
29855;DHT22;16733;48.738;9.106;2023-04-16T07:37:12;7.20;99.90
29855;DHT22;16733;48.738;9.106;2023-04-16T07:39:37;7.30;99.90
29855;DHT22;16733;48.738;9.106;2023-04-16T07:42:03;7.20;99.90
29855;DHT22;16733;48.738;9.106;2023-04-16T07:44:29;7.30;99.90
29855;DHT22;16733;48.738;9.106;2023-04-16T07:46:54;7.30;99.90
29855;DHT22;16733;48.738;9.106;2023-04-16T07:49:20;7.30;99.90
29855;DHT22;16733;48.738;9.106;2023-04-16T08:01:52;7.30;99.90
29855;DHT22;16733;48.738;9.106;2023-04-16T08:07:40;7.30;99.90
29855;DHT22;16733;48.738;9.106;2023-04-16T08:10:06;7.30;99.90
29855;DHT22;16733;48.738;9.106;2023-04-16T08:15:54;7.30;99.90
29855;DHT22;16733;48.738;9.106;2023-04-16T08:18:19;7.30;99.90
29855;DHT22;16733;48.738;9.106;2023-04-16T08:24:07;7.30;99.90
29855;DHT22;16733;48.738;9.106;2023-04-16T08:26:32;7.30;99.90
29855;DHT22;16733;48.738;9.106;2023-04-16T08:28:58;7.30;99.90
29855;DHT22;16733;48.738;9.106;2023-04-16T08:34:46;7.30;99.90
29855;DHT22;16733;48.738;9.106;2023-04-16T08:37:11;7.30;99.90
29855;DHT22;16733;48.738;9.106;2023-04-16T08:43:02;7.30;99.90
29855;DHT22;16733;48.738;9.106;2023-04-16T08:45:33;7.30;99.90
29855;DHT22;16733;48.738;9.106;2023-04-16T08:51:22;7.40;99.90
29855;DHT22;16733;48.738;9.106;2023-04-16T08:53:51;7.40;99.90
29855;DHT22;16733;48.738;9.106;2023-04-16T08:59:39;7.50;99.90
29855;DHT22;16733;48.738;9.106;2023-04-16T09:02:06;7.40;99.90
29855;DHT22;16733;48.738;9.106;2023-04-16T09:07:53;7.50;99.90
29855;DHT22;16733;48.738;9.106;2023-04-16T09:10:19;7.50;99.90
29855;DHT22;16733;48.738;9.106;2023-04-16T09:12:45;7.50;99.90
29855;DHT22;16733;48.738;9.106;2023-04-16T09:18:32;7.60;99.90
29855;DHT22;16733;48.738;9.106;2023-04-16T09:20:58;7.60;99.90
29855;DHT22;16733;48.738;9.106;2023-04-16T09:23:24;7.60;99.90
29855;DHT22;16733;48.738;9.106;2023-04-16T09:25:49;7.60;99.90
29855;DHT22;16733;48.738;9.106;2023-04-16T09:28:37;7.60;99.90
29855;DHT22;16733;48.738;9.106;2023-04-16T09:31:13;7.60;99.90
29855;DHT22;16733;48.738;9.106;2023-04-16T09:33:39;7.60;99.90
29855;DHT22;16733;48.738;9.106;2023-04-16T09:49:34;7.70;99.90
29855;DHT22;16733;48.738;9.106;2023-04-16T09:52:11;7.60;99.90
29855;DHT22;16733;48.738;9.106;2023-04-16T09:58:00;7.80;99.90
29855;DHT22;16733;48.738;9.106;2023-04-16T10:00:28;7.70;99.90
29855;DHT22;16733;48.738;9.106;2023-04-16T10:06:17;7.80;99.90
29855;DHT22;16733;48.738;9.106;2023-04-16T10:08:48;7.80;99.90
29855;DHT22;16733;48.738;9.106;2023-04-16T10:14:35;7.80;99.90
29855;DHT22;16733;48.738;9.106;2023-04-16T10:17:02;7.80;99.90
29855;DHT22;16733;48.738;9.106;2023-04-16T10:19:28;7.80;99.90
29855;DHT22;16733;48.738;9.106;2023-04-16T10:25:18;7.80;99.90
29855;DHT22;16733;48.738;9.106;2023-04-16T10:27:44;7.80;99.90
29855;DHT22;16733;48.738;9.106;2023-04-16T10:30:30;7.80;99.90
29855;DHT22;16733;48.738;9.106;2023-04-16T10:32:55;7.80;99.90
29855;DHT22;16733;48.738;9.106;2023-04-16T10:38:49;7.80;99.90
29855;DHT22;16733;48.738;9.106;2023-04-16T10:41:15;7.90;99.90
29855;DHT22;16733;48.738;9.106;2023-04-16T10:43:51;7.90;99.90
29855;DHT22;16733;48.738;9.106;2023-04-16T10:48:42;7.90;99.90
29855;DHT22;16733;48.738;9.106;2023-04-16T10:51:26;8.00;99.90
29855;DHT22;16733;48.738;9.106;2023-04-16T10:53:54;8.00;99.90
29855;DHT22;16733;48.738;9.106;2023-04-16T10:56:24;8.00;99.90
29855;DHT22;16733;48.738;9.106;2023-04-16T10:58:55;8.00;99.90
29855;DHT22;16733;48.738;9.106;2023-04-16T11:01:29;8.00;99.90
29855;DHT22;16733;48.738;9.106;2023-04-16T11:04:00;8.00;99.90
29855;DHT22;16733;48.738;9.106;2023-04-16T11:06:27;8.00;99.90
29855;DHT22;16733;48.738;9.106;2023-04-16T11:08:53;8.00;99.90
29855;DHT22;16733;48.738;9.106;2023-04-16T11:11:19;8.00;99.90
29855;DHT22;16733;48.738;9.106;2023-04-16T11:23:52;8.10;99.90
29855;DHT22;16733;48.738;9.106;2023-04-16T11:29:40;8.10;99.90
29855;DHT22;16733;48.738;9.106;2023-04-16T11:32:06;8.10;99.90
29855;DHT22;16733;48.738;9.106;2023-04-16T11:37:55;8.10;99.90
29855;DHT22;16733;48.738;9.106;2023-04-16T11:40:21;8.10;99.90
29855;DHT22;16733;48.738;9.106;2023-04-16T11:43:12;8.10;99.90
29855;DHT22;16733;48.738;9.106;2023-04-16T11:45:39;8.20;99.90
29855;DHT22;16733;48.738;9.106;2023-04-16T11:48:05;8.20;99.90
29855;DHT22;16733;48.738;9.106;2023-04-16T11:50:31;8.20;99.90
29855;DHT22;16733;48.738;9.106;2023-04-16T11:53:03;8.20;99.90
29855;DHT22;16733;48.738;9.106;2023-04-16T11:59:11;8.30;99.90
29855;DHT22;16733;48.738;9.106;2023-04-16T12:01:39;8.30;99.90
29855;DHT22;16733;48.738;9.106;2023-04-16T12:04:05;8.30;99.90
29855;DHT22;16733;48.738;9.106;2023-04-16T12:06:31;8.30;99.90
29855;DHT22;16733;48.738;9.106;2023-04-16T12:15:48;8.40;99.90
29855;DHT22;16733;48.738;9.106;2023-04-16T12:18:14;8.40;99.90
29855;DHT22;16733;48.738;9.106;2023-04-16T12:20:43;8.40;99.90
29855;DHT22;16733;48.738;9.106;2023-04-16T12:30:06;8.30;99.90
29855;DHT22;16733;48.738;9.106;2023-04-16T12:32:32;8.30;99.90
29855;DHT22;16733;48.738;9.106;2023-04-16T12:35:29;8.40;99.90
29855;DHT22;16733;48.738;9.106;2023-04-16T12:37:56;8.40;99.90
29855;DHT22;16733;48.738;9.106;2023-04-16T12:40:21;8.30;99.90
29855;DHT22;16733;48.738;9.106;2023-04-16T12:42:47;8.20;99.90
29855;DHT22;16733;48.738;9.106;2023-04-16T12:45:12;8.20;99.90
29855;DHT22;16733;48.738;9.106;2023-04-16T12:47:38;8.20;99.90
29855;DHT22;16733;48.738;9.106;2023-04-16T12:50:04;8.20;99.90
29855;DHT22;16733;48.738;9.106;2023-04-16T12:52:30;8.20;99.90
29855;DHT22;16733;48.738;9.106;2023-04-16T12:54:55;8.30;99.90
29855;DHT22;16733;48.738;9.106;2023-04-16T12:57:21;8.30;99.90
29855;DHT22;16733;48.738;9.106;2023-04-16T12:59:53;8.30;99.90
29855;DHT22;16733;48.738;9.106;2023-04-16T13:02:19;8.30;99.90
29855;DHT22;16733;48.738;9.106;2023-04-16T13:08:06;8.30;99.90
29855;DHT22;16733;48.738;9.106;2023-04-16T13:13:54;8.20;99.90
29855;DHT22;16733;48.738;9.106;2023-04-16T13:16:20;8.20;99.90
29855;DHT22;16733;48.738;9.106;2023-04-16T13:22:08;8.30;99.90
29855;DHT22;16733;48.738;9.106;2023-04-16T13:24:34;8.20;99.90
29855;DHT22;16733;48.738;9.106;2023-04-16T13:30:21;8.20;99.90
29855;DHT22;16733;48.738;9.106;2023-04-16T13:32:47;8.30;99.90
29855;DHT22;16733;48.738;9.106;2023-04-16T13:35:13;8.30;99.90
29855;DHT22;16733;48.738;9.106;2023-04-16T13:41:03;8.30;99.90
29855;DHT22;16733;48.738;9.106;2023-04-16T13:43:30;8.30;99.90
29855;DHT22;16733;48.738;9.106;2023-04-16T13:45:56;8.30;99.90
29855;DHT22;16733;48.738;9.106;2023-04-16T13:55:06;8.40;99.90
29855;DHT22;16733;48.738;9.106;2023-04-16T14:04:18;8.40;99.90
29855;DHT22;16733;48.738;9.106;2023-04-16T14:10:06;8.40;99.90
29855;DHT22;16733;48.738;9.106;2023-04-16T14:12:33;8.30;99.90
29855;DHT22;16733;48.738;9.106;2023-04-16T14:14:58;8.30;99.90
29855;DHT22;16733;48.738;9.106;2023-04-16T14:17:24;8.30;99.90
29855;DHT22;16733;48.738;9.106;2023-04-16T14:19:49;8.40;99.90
29855;DHT22;16733;48.738;9.106;2023-04-16T14:22:18;8.30;99.90
29855;DHT22;16733;48.738;9.106;2023-04-16T14:24:44;8.30;99.90
29855;DHT22;16733;48.738;9.106;2023-04-16T14:27:09;8.30;99.90
29855;DHT22;16733;48.738;9.106;2023-04-16T14:32:58;8.20;99.90
29855;DHT22;16733;48.738;9.106;2023-04-16T14:35:23;8.20;99.90
29855;DHT22;16733;48.738;9.106;2023-04-16T14:41:11;8.30;99.90
29855;DHT22;16733;48.738;9.106;2023-04-16T14:43:37;8.30;99.90
29855;DHT22;16733;48.738;9.106;2023-04-16T14:46:04;8.30;99.90
29855;DHT22;16733;48.738;9.106;2023-04-16T14:48:30;8.30;99.90
29855;DHT22;16733;48.738;9.106;2023-04-16T14:50:56;8.30;99.90
29855;DHT22;16733;48.738;9.106;2023-04-16T15:00:07;8.30;99.90
29855;DHT22;16733;48.738;9.106;2023-04-16T15:02:36;8.30;99.90
29855;DHT22;16733;48.738;9.106;2023-04-16T15:08:24;8.30;99.90
29855;DHT22;16733;48.738;9.106;2023-04-16T15:10:50;8.30;99.90
29855;DHT22;16733;48.738;9.106;2023-04-16T15:16:38;8.30;99.90
29855;DHT22;16733;48.738;9.106;2023-04-16T15:19:06;8.30;99.90
29855;DHT22;16733;48.738;9.106;2023-04-16T15:24:53;8.30;99.90
29855;DHT22;16733;48.738;9.106;2023-04-16T15:27:19;8.30;99.90
29855;DHT22;16733;48.738;9.106;2023-04-16T15:29:44;8.30;99.90
29855;DHT22;16733;48.738;9.106;2023-04-16T15:35:36;8.40;99.90
29855;DHT22;16733;48.738;9.106;2023-04-16T15:38:08;8.30;99.90
29855;DHT22;16733;48.738;9.106;2023-04-16T15:40:34;8.40;99.90
29855;DHT22;16733;48.738;9.106;2023-04-16T15:43:01;8.30;99.90
29855;DHT22;16733;48.738;9.106;2023-04-16T15:52:10;8.40;99.90
29855;DHT22;16733;48.738;9.106;2023-04-16T15:54:36;8.40;99.90
29855;DHT22;16733;48.738;9.106;2023-04-16T16:00:24;8.40;99.90
29855;DHT22;16733;48.738;9.106;2023-04-16T16:02:50;8.40;99.90
29855;DHT22;16733;48.738;9.106;2023-04-16T16:08:37;8.40;99.90
29855;DHT22;16733;48.738;9.106;2023-04-16T16:11:03;8.40;99.90
29855;DHT22;16733;48.738;9.106;2023-04-16T16:13:29;8.40;99.90
29855;DHT22;16733;48.738;9.106;2023-04-16T16:19:17;8.40;99.90
29855;DHT22;16733;48.738;9.106;2023-04-16T16:21:43;8.40;99.90
29855;DHT22;16733;48.738;9.106;2023-04-16T16:24:11;8.40;99.90
29855;DHT22;16733;48.738;9.106;2023-04-16T16:26:36;8.50;99.90
29855;DHT22;16733;48.738;9.106;2023-04-16T16:29:02;8.50;99.90
29855;DHT22;16733;48.738;9.106;2023-04-16T16:38:18;8.40;99.90
29855;DHT22;16733;48.738;9.106;2023-04-16T16:44:07;8.40;99.90
29855;DHT22;16733;48.738;9.106;2023-04-16T16:46:32;8.50;99.90
29855;DHT22;16733;48.738;9.106;2023-04-16T16:48:58;8.50;99.90
29855;DHT22;16733;48.738;9.106;2023-04-16T16:54:46;8.50;99.90
29855;DHT22;16733;48.738;9.106;2023-04-16T16:57:11;8.40;99.90
29855;DHT22;16733;48.738;9.106;2023-04-16T17:02:59;8.40;99.90
29855;DHT22;16733;48.738;9.106;2023-04-16T17:05:24;8.40;99.90
29855;DHT22;16733;48.738;9.106;2023-04-16T17:07:50;8.40;99.90
29855;DHT22;16733;48.738;9.106;2023-04-16T17:10:15;8.40;99.90
29855;DHT22;16733;48.738;9.106;2023-04-16T17:12:46;8.40;99.90
29855;DHT22;16733;48.738;9.106;2023-04-16T17:15:12;8.40;99.90
29855;DHT22;16733;48.738;9.106;2023-04-16T17:17:38;8.40;99.90
29855;DHT22;16733;48.738;9.106;2023-04-16T17:20:04;8.40;99.90
29855;DHT22;16733;48.738;9.106;2023-04-16T17:25:55;8.40;99.90
29855;DHT22;16733;48.738;9.106;2023-04-16T17:28:22;8.40;99.90
29855;DHT22;16733;48.738;9.106;2023-04-16T17:34:10;8.40;99.90
29855;DHT22;16733;48.738;9.106;2023-04-16T17:36:35;8.40;99.90
29855;DHT22;16733;48.738;9.106;2023-04-16T17:42:23;8.40;99.90
29855;DHT22;16733;48.738;9.106;2023-04-16T17:44:49;8.40;99.90
29855;DHT22;16733;48.738;9.106;2023-04-16T17:47:14;8.40;99.90
29855;DHT22;16733;48.738;9.106;2023-04-16T17:49:40;8.40;99.90
29855;DHT22;16733;48.738;9.106;2023-04-16T17:52:06;8.40;99.90
29855;DHT22;16733;48.738;9.106;2023-04-16T17:54:31;8.40;99.90
29855;DHT22;16733;48.738;9.106;2023-04-16T17:56:57;8.40;99.90
29855;DHT22;16733;48.738;9.106;2023-04-16T17:59:23;8.40;99.90
29855;DHT22;16733;48.738;9.106;2023-04-16T18:01:48;8.40;99.90
29855;DHT22;16733;48.738;9.106;2023-04-16T18:10:58;8.40;99.90
29855;DHT22;16733;48.738;9.106;2023-04-16T18:16:47;8.40;99.90
29855;DHT22;16733;48.738;9.106;2023-04-16T18:19:12;8.40;99.90
29855;DHT22;16733;48.738;9.106;2023-04-16T18:28:22;8.50;99.90
29855;DHT22;16733;48.738;9.106;2023-04-16T18:30:48;8.50;99.90
29855;DHT22;16733;48.738;9.106;2023-04-16T18:33:14;8.40;99.90
29855;DHT22;16733;48.738;9.106;2023-04-16T18:35:39;8.50;99.90
29855;DHT22;16733;48.738;9.106;2023-04-16T18:41:28;8.50;99.90
29855;DHT22;16733;48.738;9.106;2023-04-16T18:43:55;8.40;99.90
29855;DHT22;16733;48.738;9.106;2023-04-16T18:46:21;8.50;99.90
29855;DHT22;16733;48.738;9.106;2023-04-16T18:48:46;8.40;99.90
29855;DHT22;16733;48.738;9.106;2023-04-16T18:51:12;8.40;99.90
29855;DHT22;16733;48.738;9.106;2023-04-16T18:53:37;8.40;99.90
29855;DHT22;16733;48.738;9.106;2023-04-16T18:56:04;8.50;99.90
29855;DHT22;16733;48.738;9.106;2023-04-16T18:58:29;8.50;99.90
29855;DHT22;16733;48.738;9.106;2023-04-16T19:04:17;8.50;99.90
29855;DHT22;16733;48.738;9.106;2023-04-16T19:10:06;8.50;99.90
29855;DHT22;16733;48.738;9.106;2023-04-16T19:12:31;8.50;99.90
29855;DHT22;16733;48.738;9.106;2023-04-16T19:14:57;8.50;99.90
29855;DHT22;16733;48.738;9.106;2023-04-16T19:20:45;8.50;99.90
29855;DHT22;16733;48.738;9.106;2023-04-16T19:23:10;8.50;99.90
29855;DHT22;16733;48.738;9.106;2023-04-16T19:25:38;8.50;99.90
29855;DHT22;16733;48.738;9.106;2023-04-16T19:28:04;8.50;99.90
29855;DHT22;16733;48.738;9.106;2023-04-16T19:30:29;8.40;99.90
29855;DHT22;16733;48.738;9.106;2023-04-16T19:32:55;8.50;99.90
29855;DHT22;16733;48.738;9.106;2023-04-16T19:35:21;8.50;99.90
29855;DHT22;16733;48.738;9.106;2023-04-16T19:41:08;8.50;99.90
29855;DHT22;16733;48.738;9.106;2023-04-16T19:43:34;8.50;99.90
29855;DHT22;16733;48.738;9.106;2023-04-16T19:46:01;8.40;99.90
29855;DHT22;16733;48.738;9.106;2023-04-16T19:51:49;8.40;99.90
29855;DHT22;16733;48.738;9.106;2023-04-16T19:54:15;8.40;99.90
29855;DHT22;16733;48.738;9.106;2023-04-16T19:56:41;8.40;99.90
29855;DHT22;16733;48.738;9.106;2023-04-16T20:02:29;8.40;99.90
29855;DHT22;16733;48.738;9.106;2023-04-16T20:08:16;8.40;99.90
29855;DHT22;16733;48.738;9.106;2023-04-16T20:10:42;8.40;99.90
29855;DHT22;16733;48.738;9.106;2023-04-16T20:13:10;8.40;99.90
29855;DHT22;16733;48.738;9.106;2023-04-16T20:19:12;8.30;99.90
29855;DHT22;16733;48.738;9.106;2023-04-16T20:25:02;8.30;99.90
29855;DHT22;16733;48.738;9.106;2023-04-16T20:27:29;8.30;99.90
29855;DHT22;16733;48.738;9.106;2023-04-16T20:29:54;8.30;99.90
29855;DHT22;16733;48.738;9.106;2023-04-16T20:32:20;8.30;99.90
29855;DHT22;16733;48.738;9.106;2023-04-16T20:34:46;8.40;99.90
29855;DHT22;16733;48.738;9.106;2023-04-16T20:37:13;8.40;99.90
29855;DHT22;16733;48.738;9.106;2023-04-16T20:39:39;8.30;99.90
29855;DHT22;16733;48.738;9.106;2023-04-16T20:42:09;8.30;99.90
29855;DHT22;16733;48.738;9.106;2023-04-16T20:44:39;8.30;99.90
29855;DHT22;16733;48.738;9.106;2023-04-16T20:50:26;8.30;99.90
29855;DHT22;16733;48.738;9.106;2023-04-16T20:59:36;8.30;99.90
29855;DHT22;16733;48.738;9.106;2023-04-16T21:02:02;8.30;99.90
29855;DHT22;16733;48.738;9.106;2023-04-16T21:04:27;8.30;99.90
29855;DHT22;16733;48.738;9.106;2023-04-16T21:06:53;8.30;99.90
29855;DHT22;16733;48.738;9.106;2023-04-16T21:09:19;8.30;99.90
29855;DHT22;16733;48.738;9.106;2023-04-16T21:11:45;8.30;99.90
29855;DHT22;16733;48.738;9.106;2023-04-16T21:14:11;8.30;99.90
29855;DHT22;16733;48.738;9.106;2023-04-16T21:16:37;8.30;99.90
29855;DHT22;16733;48.738;9.106;2023-04-16T21:19:02;8.30;99.90
29855;DHT22;16733;48.738;9.106;2023-04-16T21:21:28;8.30;99.90
29855;DHT22;16733;48.738;9.106;2023-04-16T21:23:53;8.30;99.90
29855;DHT22;16733;48.738;9.106;2023-04-16T21:26:19;8.30;99.90
29855;DHT22;16733;48.738;9.106;2023-04-16T21:28:45;8.30;99.90
29855;DHT22;16733;48.738;9.106;2023-04-16T21:41:16;8.20;99.90
29855;DHT22;16733;48.738;9.106;2023-04-16T21:47:04;8.20;99.90
29855;DHT22;16733;48.738;9.106;2023-04-16T21:52:51;8.20;99.90
29855;DHT22;16733;48.738;9.106;2023-04-16T21:58:40;8.20;99.90
29855;DHT22;16733;48.738;9.106;2023-04-16T22:01:06;8.20;99.90
29855;DHT22;16733;48.738;9.106;2023-04-16T22:03:31;8.20;99.90
29855;DHT22;16733;48.738;9.106;2023-04-16T22:09:19;8.20;99.90
29855;DHT22;16733;48.738;9.106;2023-04-16T22:11:45;8.20;99.90
29855;DHT22;16733;48.738;9.106;2023-04-16T22:14:10;8.20;99.90
29855;DHT22;16733;48.738;9.106;2023-04-16T22:16:36;8.20;99.90
29855;DHT22;16733;48.738;9.106;2023-04-16T22:19:01;8.20;99.90
29855;DHT22;16733;48.738;9.106;2023-04-16T22:21:27;8.20;99.90
29855;DHT22;16733;48.738;9.106;2023-04-16T22:23:52;8.20;99.90
29855;DHT22;16733;48.738;9.106;2023-04-16T22:26:18;8.20;99.90
29855;DHT22;16733;48.738;9.106;2023-04-16T22:28:43;8.20;99.90
29855;DHT22;16733;48.738;9.106;2023-04-16T22:31:09;8.20;99.90
29855;DHT22;16733;48.738;9.106;2023-04-16T22:33:35;8.20;99.90
29855;DHT22;16733;48.738;9.106;2023-04-16T22:42:44;8.20;99.90
29855;DHT22;16733;48.738;9.106;2023-04-16T22:45:10;8.20;99.90
29855;DHT22;16733;48.738;9.106;2023-04-16T22:47:36;8.20;99.90
29855;DHT22;16733;48.738;9.106;2023-04-16T22:53:24;8.20;99.90